sensor_id;sensor_type;location;lat;lon;timestamp;P1;durP1;ratioP1;P2;durP2;ratioP2
75218;SDS011;63801;49.414;19.474;2022-12-18T00:01:45;107.40;;;28.48;;
75218;SDS011;63801;49.414;19.474;2022-12-18T00:03:45;94.40;;;26.23;;
75218;SDS011;63801;49.414;19.474;2022-12-18T00:05:49;97.93;;;26.52;;
75218;SDS011;63801;49.414;19.474;2022-12-18T00:07:50;88.90;;;25.75;;
75218;SDS011;63801;49.414;19.474;2022-12-18T00:09:51;107.07;;;27.50;;
75218;SDS011;63801;49.414;19.474;2022-12-18T00:11:51;81.97;;;24.65;;
75218;SDS011;63801;49.414;19.474;2022-12-18T00:13:52;98.18;;;26.58;;
75218;SDS011;63801;49.414;19.474;2022-12-18T00:17:54;184.98;;;48.03;;
75218;SDS011;63801;49.414;19.474;2022-12-18T00:19:54;123.35;;;31.98;;
75218;SDS011;63801;49.414;19.474;2022-12-18T00:21:55;111.18;;;28.65;;
75218;SDS011;63801;49.414;19.474;2022-12-18T00:23:55;91.20;;;26.90;;
75218;SDS011;63801;49.414;19.474;2022-12-18T00:26:03;96.85;;;24.58;;
75218;SDS011;63801;49.414;19.474;2022-12-18T00:28:09;89.75;;;24.25;;
75218;SDS011;63801;49.414;19.474;2022-12-18T00:30:09;88.85;;;24.75;;
75218;SDS011;63801;49.414;19.474;2022-12-18T00:32:10;86.47;;;24.17;;
75218;SDS011;63801;49.414;19.474;2022-12-18T00:34:11;90.75;;;25.10;;
75218;SDS011;63801;49.414;19.474;2022-12-18T00:36:13;84.63;;;24.20;;
75218;SDS011;63801;49.414;19.474;2022-12-18T00:38:15;88.70;;;23.88;;
75218;SDS011;63801;49.414;19.474;2022-12-18T00:40:16;98.40;;;24.80;;
75218;SDS011;63801;49.414;19.474;2022-12-18T00:42:16;93.35;;;24.50;;
75218;SDS011;63801;49.414;19.474;2022-12-18T00:44:35;91.15;;;24.55;;
75218;SDS011;63801;49.414;19.474;2022-12-18T00:46:35;93.85;;;25.80;;
75218;SDS011;63801;49.414;19.474;2022-12-18T00:48:35;85.50;;;26.95;;
75218;SDS011;63801;49.414;19.474;2022-12-18T00:50:36;88.93;;;24.73;;
75218;SDS011;63801;49.414;19.474;2022-12-18T00:52:36;96.43;;;25.63;;
75218;SDS011;63801;49.414;19.474;2022-12-18T00:54:37;102.10;;;27.02;;
75218;SDS011;63801;49.414;19.474;2022-12-18T00:56:37;92.53;;;24.95;;
75218;SDS011;63801;49.414;19.474;2022-12-18T00:58:38;99.18;;;25.13;;
75218;SDS011;63801;49.414;19.474;2022-12-18T01:00:39;95.47;;;24.83;;
75218;SDS011;63801;49.414;19.474;2022-12-18T01:02:39;89.18;;;24.63;;
75218;SDS011;63801;49.414;19.474;2022-12-18T01:04:40;96.32;;;25.50;;
75218;SDS011;63801;49.414;19.474;2022-12-18T01:06:40;85.50;;;25.33;;
75218;SDS011;63801;49.414;19.474;2022-12-18T01:08:41;88.70;;;25.60;;
75218;SDS011;63801;49.414;19.474;2022-12-18T01:10:42;97.82;;;25.63;;
75218;SDS011;63801;49.414;19.474;2022-12-18T01:12:42;89.93;;;26.05;;
75218;SDS011;63801;49.414;19.474;2022-12-18T01:14:42;99.82;;;24.55;;
75218;SDS011;63801;49.414;19.474;2022-12-18T01:16:43;87.90;;;23.42;;
75218;SDS011;63801;49.414;19.474;2022-12-18T01:18:43;84.85;;;24.27;;
75218;SDS011;63801;49.414;19.474;2022-12-18T01:20:44;90.07;;;23.35;;
75218;SDS011;63801;49.414;19.474;2022-12-18T01:22:44;90.05;;;25.95;;
75218;SDS011;63801;49.414;19.474;2022-12-18T01:24:45;87.40;;;23.23;;
75218;SDS011;63801;49.414;19.474;2022-12-18T01:26:45;90.57;;;23.02;;
75218;SDS011;63801;49.414;19.474;2022-12-18T01:28:45;88.32;;;23.38;;
75218;SDS011;63801;49.414;19.474;2022-12-18T01:30:46;86.13;;;22.88;;
75218;SDS011;63801;49.414;19.474;2022-12-18T01:32:46;82.05;;;22.55;;
75218;SDS011;63801;49.414;19.474;2022-12-18T01:34:47;77.82;;;21.30;;
75218;SDS011;63801;49.414;19.474;2022-12-18T01:36:48;90.03;;;24.95;;
75218;SDS011;63801;49.414;19.474;2022-12-18T01:38:48;86.20;;;23.45;;
75218;SDS011;63801;49.414;19.474;2022-12-18T01:40:56;95.28;;;25.15;;
75218;SDS011;63801;49.414;19.474;2022-12-18T01:42:57;81.18;;;23.05;;
75218;SDS011;63801;49.414;19.474;2022-12-18T01:47:18;91.28;;;24.48;;
75218;SDS011;63801;49.414;19.474;2022-12-18T01:49:37;79.75;;;24.05;;
75218;SDS011;63801;49.414;19.474;2022-12-18T01:51:38;89.05;;;23.95;;
75218;SDS011;63801;49.414;19.474;2022-12-18T01:53:39;78.40;;;22.88;;
75218;SDS011;63801;49.414;19.474;2022-12-18T01:55:48;89.97;;;21.95;;
75218;SDS011;63801;49.414;19.474;2022-12-18T01:57:55;87.10;;;23.83;;
75218;SDS011;63801;49.414;19.474;2022-12-18T01:59:59;80.65;;;21.83;;
75218;SDS011;63801;49.414;19.474;2022-12-18T02:02:02;79.57;;;22.35;;
75218;SDS011;63801;49.414;19.474;2022-12-18T02:04:19;89.45;;;23.35;;
75218;SDS011;63801;49.414;19.474;2022-12-18T02:06:33;82.35;;;21.38;;
75218;SDS011;63801;49.414;19.474;2022-12-18T02:11:12;90.25;;;22.13;;
75218;SDS011;63801;49.414;19.474;2022-12-18T02:13:20;94.63;;;24.48;;
75218;SDS011;63801;49.414;19.474;2022-12-18T02:18:07;94.25;;;24.48;;
75218;SDS011;63801;49.414;19.474;2022-12-18T02:20:30;97.25;;;24.40;;
75218;SDS011;63801;49.414;19.474;2022-12-18T02:22:59;89.47;;;23.95;;
75218;SDS011;63801;49.414;19.474;2022-12-18T02:27:17;87.70;;;23.20;;
75218;SDS011;63801;49.414;19.474;2022-12-18T02:29:26;93.22;;;23.25;;
75218;SDS011;63801;49.414;19.474;2022-12-18T02:31:34;87.30;;;23.08;;
75218;SDS011;63801;49.414;19.474;2022-12-18T02:33:38;90.35;;;23.20;;
75218;SDS011;63801;49.414;19.474;2022-12-18T02:35:40;73.32;;;21.13;;
75218;SDS011;63801;49.414;19.474;2022-12-18T02:37:43;84.18;;;22.63;;
75218;SDS011;63801;49.414;19.474;2022-12-18T02:39:47;80.40;;;22.10;;
75218;SDS011;63801;49.414;19.474;2022-12-18T02:41:49;87.18;;;23.45;;
75218;SDS011;63801;49.414;19.474;2022-12-18T02:43:59;86.32;;;23.40;;
75218;SDS011;63801;49.414;19.474;2022-12-18T02:46:24;89.13;;;24.42;;
75218;SDS011;63801;49.414;19.474;2022-12-18T02:48:32;93.35;;;24.83;;
75218;SDS011;63801;49.414;19.474;2022-12-18T02:50:36;126.88;;;40.60;;
75218;SDS011;63801;49.414;19.474;2022-12-18T02:55:23;78.57;;;21.67;;
75218;SDS011;63801;49.414;19.474;2022-12-18T02:57:33;140.63;;;36.08;;
75218;SDS011;63801;49.414;19.474;2022-12-18T02:59:38;115.13;;;33.38;;
75218;SDS011;63801;49.414;19.474;2022-12-18T03:01:49;253.13;;;83.15;;
75218;SDS011;63801;49.414;19.474;2022-12-18T03:03:55;83.00;;;23.33;;
75218;SDS011;63801;49.414;19.474;2022-12-18T03:06:04;89.03;;;24.00;;
75218;SDS011;63801;49.414;19.474;2022-12-18T03:08:14;81.95;;;23.02;;
75218;SDS011;63801;49.414;19.474;2022-12-18T03:10:20;265.60;;;80.63;;
75218;SDS011;63801;49.414;19.474;2022-12-18T03:12:34;157.73;;;43.28;;
75218;SDS011;63801;49.414;19.474;2022-12-18T03:14:37;112.53;;;29.73;;
75218;SDS011;63801;49.414;19.474;2022-12-18T03:16:40;194.27;;;64.53;;
75218;SDS011;63801;49.414;19.474;2022-12-18T03:18:51;143.02;;;41.53;;
75218;SDS011;63801;49.414;19.474;2022-12-18T03:20:58;94.75;;;28.92;;
75218;SDS011;63801;49.414;19.474;2022-12-18T03:23:07;116.32;;;31.15;;
75218;SDS011;63801;49.414;19.474;2022-12-18T03:25:11;117.53;;;32.25;;
75218;SDS011;63801;49.414;19.474;2022-12-18T03:27:14;117.53;;;34.42;;
75218;SDS011;63801;49.414;19.474;2022-12-18T03:29:38;135.43;;;38.95;;
75218;SDS011;63801;49.414;19.474;2022-12-18T03:31:42;233.68;;;73.68;;
75218;SDS011;63801;49.414;19.474;2022-12-18T03:33:56;234.88;;;74.55;;
75218;SDS011;63801;49.414;19.474;2022-12-18T03:36:00;311.88;;;89.43;;
75218;SDS011;63801;49.414;19.474;2022-12-18T03:38:01;385.83;;;115.75;;
75218;SDS011;63801;49.414;19.474;2022-12-18T03:40:01;198.73;;;55.50;;
75218;SDS011;63801;49.414;19.474;2022-12-18T03:42:07;186.23;;;50.55;;
75218;SDS011;63801;49.414;19.474;2022-12-18T03:44:28;149.38;;;39.60;;
75218;SDS011;63801;49.414;19.474;2022-12-18T03:48:48;130.40;;;48.00;;
75218;SDS011;63801;49.414;19.474;2022-12-18T03:50:57;117.75;;;40.33;;
75218;SDS011;63801;49.414;19.474;2022-12-18T03:53:08;115.93;;;31.55;;
75218;SDS011;63801;49.414;19.474;2022-12-18T03:55:34;117.00;;;34.83;;
75218;SDS011;63801;49.414;19.474;2022-12-18T03:57:35;103.43;;;28.05;;
75218;SDS011;63801;49.414;19.474;2022-12-18T03:59:38;130.02;;;44.72;;
75218;SDS011;63801;49.414;19.474;2022-12-18T04:01:41;119.22;;;36.33;;
75218;SDS011;63801;49.414;19.474;2022-12-18T04:03:46;141.07;;;43.65;;
75218;SDS011;63801;49.414;19.474;2022-12-18T04:05:49;142.75;;;40.10;;
75218;SDS011;63801;49.414;19.474;2022-12-18T04:07:52;130.38;;;36.95;;
75218;SDS011;63801;49.414;19.474;2022-12-18T04:09:54;118.93;;;33.57;;
75218;SDS011;63801;49.414;19.474;2022-12-18T04:11:56;115.80;;;30.67;;
75218;SDS011;63801;49.414;19.474;2022-12-18T04:13:57;147.27;;;45.83;;
75218;SDS011;63801;49.414;19.474;2022-12-18T04:15:58;149.85;;;43.28;;
75218;SDS011;63801;49.414;19.474;2022-12-18T04:17:58;125.25;;;35.25;;
75218;SDS011;63801;49.414;19.474;2022-12-18T04:19:59;130.55;;;34.10;;
75218;SDS011;63801;49.414;19.474;2022-12-18T04:21:59;161.52;;;47.92;;
75218;SDS011;63801;49.414;19.474;2022-12-18T04:23:59;150.02;;;38.85;;
75218;SDS011;63801;49.414;19.474;2022-12-18T04:26:00;126.65;;;32.17;;
75218;SDS011;63801;49.414;19.474;2022-12-18T04:28:00;116.05;;;30.80;;
75218;SDS011;63801;49.414;19.474;2022-12-18T04:30:00;115.38;;;32.97;;
75218;SDS011;63801;49.414;19.474;2022-12-18T04:32:01;131.52;;;33.03;;
75218;SDS011;63801;49.414;19.474;2022-12-18T04:34:01;131.02;;;33.50;;
75218;SDS011;63801;49.414;19.474;2022-12-18T04:36:01;140.70;;;42.83;;
75218;SDS011;63801;49.414;19.474;2022-12-18T04:38:02;323.30;;;98.15;;
75218;SDS011;63801;49.414;19.474;2022-12-18T04:40:03;284.23;;;88.30;;
75218;SDS011;63801;49.414;19.474;2022-12-18T04:42:04;176.50;;;48.92;;
75218;SDS011;63801;49.414;19.474;2022-12-18T04:44:05;117.80;;;34.65;;
75218;SDS011;63801;49.414;19.474;2022-12-18T04:46:05;97.53;;;30.80;;
75218;SDS011;63801;49.414;19.474;2022-12-18T04:48:07;101.10;;;27.90;;
75218;SDS011;63801;49.414;19.474;2022-12-18T04:50:07;106.03;;;28.58;;
75218;SDS011;63801;49.414;19.474;2022-12-18T04:52:07;123.68;;;36.15;;
75218;SDS011;63801;49.414;19.474;2022-12-18T04:54:08;148.65;;;44.90;;
75218;SDS011;63801;49.414;19.474;2022-12-18T04:56:09;125.95;;;35.50;;
75218;SDS011;63801;49.414;19.474;2022-12-18T04:58:11;105.15;;;30.73;;
75218;SDS011;63801;49.414;19.474;2022-12-18T05:00:11;121.13;;;32.30;;
75218;SDS011;63801;49.414;19.474;2022-12-18T05:02:12;145.27;;;41.75;;
75218;SDS011;63801;49.414;19.474;2022-12-18T05:04:12;160.73;;;44.65;;
75218;SDS011;63801;49.414;19.474;2022-12-18T05:06:13;87.47;;;24.02;;
75218;SDS011;63801;49.414;19.474;2022-12-18T05:08:13;104.57;;;29.67;;
75218;SDS011;63801;49.414;19.474;2022-12-18T05:10:14;89.55;;;26.52;;
75218;SDS011;63801;49.414;19.474;2022-12-18T05:12:14;88.72;;;22.88;;
75218;SDS011;63801;49.414;19.474;2022-12-18T05:14:15;99.78;;;22.92;;
75218;SDS011;63801;49.414;19.474;2022-12-18T05:16:15;102.57;;;27.65;;
75218;SDS011;63801;49.414;19.474;2022-12-18T05:18:15;106.20;;;26.17;;
75218;SDS011;63801;49.414;19.474;2022-12-18T05:20:16;87.53;;;23.23;;
75218;SDS011;63801;49.414;19.474;2022-12-18T05:22:16;93.95;;;22.92;;
75218;SDS011;63801;49.414;19.474;2022-12-18T05:24:16;87.03;;;23.52;;
75218;SDS011;63801;49.414;19.474;2022-12-18T05:26:17;78.43;;;22.25;;
75218;SDS011;63801;49.414;19.474;2022-12-18T05:28:18;99.82;;;25.30;;
75218;SDS011;63801;49.414;19.474;2022-12-18T05:30:18;85.00;;;23.35;;
75218;SDS011;63801;49.414;19.474;2022-12-18T05:32:19;92.88;;;25.50;;
75218;SDS011;63801;49.414;19.474;2022-12-18T05:34:19;94.25;;;24.63;;
75218;SDS011;63801;49.414;19.474;2022-12-18T05:36:19;94.22;;;25.02;;
75218;SDS011;63801;49.414;19.474;2022-12-18T05:38:20;83.78;;;24.20;;
75218;SDS011;63801;49.414;19.474;2022-12-18T05:40:21;89.40;;;24.07;;
75218;SDS011;63801;49.414;19.474;2022-12-18T05:42:21;84.70;;;22.45;;
75218;SDS011;63801;49.414;19.474;2022-12-18T05:44:22;86.25;;;23.27;;
75218;SDS011;63801;49.414;19.474;2022-12-18T05:46:22;69.32;;;20.52;;
75218;SDS011;63801;49.414;19.474;2022-12-18T05:48:24;73.43;;;21.17;;
75218;SDS011;63801;49.414;19.474;2022-12-18T05:50:24;90.07;;;23.08;;
75218;SDS011;63801;49.414;19.474;2022-12-18T05:52:25;94.50;;;25.42;;
75218;SDS011;63801;49.414;19.474;2022-12-18T05:54:27;90.20;;;23.17;;
75218;SDS011;63801;49.414;19.474;2022-12-18T05:56:28;111.60;;;29.65;;
75218;SDS011;63801;49.414;19.474;2022-12-18T05:58:28;110.93;;;27.45;;
75218;SDS011;63801;49.414;19.474;2022-12-18T06:00:29;112.40;;;30.48;;
75218;SDS011;63801;49.414;19.474;2022-12-18T06:02:30;200.30;;;49.40;;
75218;SDS011;63801;49.414;19.474;2022-12-18T06:04:30;200.20;;;51.70;;
75218;SDS011;63801;49.414;19.474;2022-12-18T06:06:31;171.20;;;40.47;;
75218;SDS011;63801;49.414;19.474;2022-12-18T06:08:31;161.85;;;39.95;;
75218;SDS011;63801;49.414;19.474;2022-12-18T06:10:32;189.77;;;47.72;;
75218;SDS011;63801;49.414;19.474;2022-12-18T06:12:32;182.20;;;43.80;;
75218;SDS011;63801;49.414;19.474;2022-12-18T06:14:35;138.18;;;35.45;;
75218;SDS011;63801;49.414;19.474;2022-12-18T06:16:36;137.48;;;37.30;;
75218;SDS011;63801;49.414;19.474;2022-12-18T06:18:36;136.82;;;36.53;;
75218;SDS011;63801;49.414;19.474;2022-12-18T06:20:36;102.45;;;28.75;;
75218;SDS011;63801;49.414;19.474;2022-12-18T06:22:39;98.40;;;28.73;;
75218;SDS011;63801;49.414;19.474;2022-12-18T06:24:39;88.47;;;28.67;;
75218;SDS011;63801;49.414;19.474;2022-12-18T06:26:40;101.30;;;28.63;;
75218;SDS011;63801;49.414;19.474;2022-12-18T06:28:40;97.68;;;29.23;;
75218;SDS011;63801;49.414;19.474;2022-12-18T06:30:44;98.95;;;29.05;;
75218;SDS011;63801;49.414;19.474;2022-12-18T06:32:45;115.50;;;34.90;;
75218;SDS011;63801;49.414;19.474;2022-12-18T06:34:47;122.72;;;34.75;;
75218;SDS011;63801;49.414;19.474;2022-12-18T06:36:47;106.93;;;29.73;;
75218;SDS011;63801;49.414;19.474;2022-12-18T06:38:48;98.10;;;27.90;;
75218;SDS011;63801;49.414;19.474;2022-12-18T06:40:48;155.43;;;45.60;;
75218;SDS011;63801;49.414;19.474;2022-12-18T06:42:49;155.40;;;45.97;;
75218;SDS011;63801;49.414;19.474;2022-12-18T06:44:49;163.30;;;45.35;;
75218;SDS011;63801;49.414;19.474;2022-12-18T06:46:49;303.52;;;82.72;;
75218;SDS011;63801;49.414;19.474;2022-12-18T06:48:50;426.98;;;128.68;;
75218;SDS011;63801;49.414;19.474;2022-12-18T06:50:50;431.92;;;142.75;;
75218;SDS011;63801;49.414;19.474;2022-12-18T06:52:50;412.70;;;128.20;;
75218;SDS011;63801;49.414;19.474;2022-12-18T06:54:51;227.95;;;66.55;;
75218;SDS011;63801;49.414;19.474;2022-12-18T06:56:51;304.20;;;73.88;;
75218;SDS011;63801;49.414;19.474;2022-12-18T06:58:51;373.92;;;81.90;;
75218;SDS011;63801;49.414;19.474;2022-12-18T07:00:52;442.33;;;116.00;;
75218;SDS011;63801;49.414;19.474;2022-12-18T07:02:53;488.67;;;134.82;;
75218;SDS011;63801;49.414;19.474;2022-12-18T07:04:53;388.40;;;97.28;;
75218;SDS011;63801;49.414;19.474;2022-12-18T07:06:53;250.27;;;64.85;;
75218;SDS011;63801;49.414;19.474;2022-12-18T07:08:54;217.25;;;63.53;;
75218;SDS011;63801;49.414;19.474;2022-12-18T07:10:55;282.95;;;83.05;;
75218;SDS011;63801;49.414;19.474;2022-12-18T07:12:55;280.63;;;84.28;;
75218;SDS011;63801;49.414;19.474;2022-12-18T07:14:56;170.27;;;45.47;;
75218;SDS011;63801;49.414;19.474;2022-12-18T07:16:56;168.93;;;45.95;;
75218;SDS011;63801;49.414;19.474;2022-12-18T07:18:56;237.80;;;70.50;;
75218;SDS011;63801;49.414;19.474;2022-12-18T07:20:57;201.75;;;57.22;;
75218;SDS011;63801;49.414;19.474;2022-12-18T07:22:57;190.50;;;57.22;;
75218;SDS011;63801;49.414;19.474;2022-12-18T07:24:57;315.20;;;76.78;;
75218;SDS011;63801;49.414;19.474;2022-12-18T07:26:58;191.23;;;52.42;;
75218;SDS011;63801;49.414;19.474;2022-12-18T07:28:59;171.15;;;51.15;;
75218;SDS011;63801;49.414;19.474;2022-12-18T07:31:10;193.57;;;58.72;;
75218;SDS011;63801;49.414;19.474;2022-12-18T07:35:12;125.38;;;32.08;;
75218;SDS011;63801;49.414;19.474;2022-12-18T07:37:13;97.35;;;24.00;;
75218;SDS011;63801;49.414;19.474;2022-12-18T07:39:14;174.88;;;52.15;;
75218;SDS011;63801;49.414;19.474;2022-12-18T07:41:14;127.50;;;40.50;;
75218;SDS011;63801;49.414;19.474;2022-12-18T07:43:15;174.05;;;49.30;;
75218;SDS011;63801;49.414;19.474;2022-12-18T07:45:15;176.98;;;52.22;;
75218;SDS011;63801;49.414;19.474;2022-12-18T07:47:16;128.55;;;38.15;;
75218;SDS011;63801;49.414;19.474;2022-12-18T07:49:16;129.15;;;38.15;;
75218;SDS011;63801;49.414;19.474;2022-12-18T07:51:17;125.72;;;36.45;;
75218;SDS011;63801;49.414;19.474;2022-12-18T07:53:18;137.20;;;33.10;;
75218;SDS011;63801;49.414;19.474;2022-12-18T07:55:18;285.08;;;74.53;;
75218;SDS011;63801;49.414;19.474;2022-12-18T07:57:18;258.02;;;83.80;;
75218;SDS011;63801;49.414;19.474;2022-12-18T07:59:19;301.67;;;92.10;;
75218;SDS011;63801;49.414;19.474;2022-12-18T08:01:19;355.85;;;121.13;;
75218;SDS011;63801;49.414;19.474;2022-12-18T08:03:19;242.95;;;79.07;;
75218;SDS011;63801;49.414;19.474;2022-12-18T08:05:20;188.52;;;55.13;;
75218;SDS011;63801;49.414;19.474;2022-12-18T08:07:20;268.92;;;84.72;;
75218;SDS011;63801;49.414;19.474;2022-12-18T08:09:21;396.00;;;131.63;;
75218;SDS011;63801;49.414;19.474;2022-12-18T08:11:22;226.40;;;73.13;;
75218;SDS011;63801;49.414;19.474;2022-12-18T08:13:23;247.05;;;87.63;;
75218;SDS011;63801;49.414;19.474;2022-12-18T08:15:24;226.85;;;75.20;;
75218;SDS011;63801;49.414;19.474;2022-12-18T08:17:24;424.25;;;157.23;;
75218;SDS011;63801;49.414;19.474;2022-12-18T08:19:25;261.63;;;89.50;;
75218;SDS011;63801;49.414;19.474;2022-12-18T08:21:26;208.35;;;61.72;;
75218;SDS011;63801;49.414;19.474;2022-12-18T08:23:28;177.85;;;50.90;;
75218;SDS011;63801;49.414;19.474;2022-12-18T08:25:28;215.95;;;56.70;;
75218;SDS011;63801;49.414;19.474;2022-12-18T08:27:29;143.07;;;41.85;;
75218;SDS011;63801;49.414;19.474;2022-12-18T08:29:29;125.63;;;32.75;;
75218;SDS011;63801;49.414;19.474;2022-12-18T08:31:30;127.35;;;30.58;;
75218;SDS011;63801;49.414;19.474;2022-12-18T08:33:31;111.82;;;31.73;;
75218;SDS011;63801;49.414;19.474;2022-12-18T08:35:34;216.00;;;64.88;;
75218;SDS011;63801;49.414;19.474;2022-12-18T08:37:36;188.25;;;51.72;;
75218;SDS011;63801;49.414;19.474;2022-12-18T08:39:36;174.43;;;52.53;;
75218;SDS011;63801;49.414;19.474;2022-12-18T08:41:36;160.90;;;44.25;;
75218;SDS011;63801;49.414;19.474;2022-12-18T08:43:37;173.00;;;43.97;;
75218;SDS011;63801;49.414;19.474;2022-12-18T08:45:56;167.88;;;44.05;;
75218;SDS011;63801;49.414;19.474;2022-12-18T08:47:57;148.23;;;39.13;;
75218;SDS011;63801;49.414;19.474;2022-12-18T08:49:57;174.80;;;32.15;;
75218;SDS011;63801;49.414;19.474;2022-12-18T08:51:57;142.07;;;28.63;;
75218;SDS011;63801;49.414;19.474;2022-12-18T08:53:58;172.40;;;36.47;;
75218;SDS011;63801;49.414;19.474;2022-12-18T08:55:58;140.35;;;30.08;;
75218;SDS011;63801;49.414;19.474;2022-12-18T08:57:58;167.80;;;32.17;;
75218;SDS011;63801;49.414;19.474;2022-12-18T08:59:58;200.32;;;46.65;;
75218;SDS011;63801;49.414;19.474;2022-12-18T09:01:59;191.10;;;42.90;;
75218;SDS011;63801;49.414;19.474;2022-12-18T09:03:59;198.52;;;38.13;;
75218;SDS011;63801;49.414;19.474;2022-12-18T09:05:59;148.38;;;38.97;;
75218;SDS011;63801;49.414;19.474;2022-12-18T09:08:00;224.25;;;31.30;;
75218;SDS011;63801;49.414;19.474;2022-12-18T09:10:00;156.38;;;31.67;;
75218;SDS011;63801;49.414;19.474;2022-12-18T09:12:00;136.10;;;30.13;;
75218;SDS011;63801;49.414;19.474;2022-12-18T09:14:01;111.43;;;26.00;;
75218;SDS011;63801;49.414;19.474;2022-12-18T09:16:02;143.65;;;35.90;;
75218;SDS011;63801;49.414;19.474;2022-12-18T09:18:03;156.05;;;42.30;;
75218;SDS011;63801;49.414;19.474;2022-12-18T09:20:03;181.80;;;51.40;;
75218;SDS011;63801;49.414;19.474;2022-12-18T09:22:04;164.00;;;37.83;;
75218;SDS011;63801;49.414;19.474;2022-12-18T09:24:05;118.28;;;27.55;;
75218;SDS011;63801;49.414;19.474;2022-12-18T09:26:06;137.20;;;31.58;;
75218;SDS011;63801;49.414;19.474;2022-12-18T09:28:09;127.70;;;31.20;;
75218;SDS011;63801;49.414;19.474;2022-12-18T09:30:11;129.95;;;34.38;;
75218;SDS011;63801;49.414;19.474;2022-12-18T09:32:12;112.03;;;31.58;;
75218;SDS011;63801;49.414;19.474;2022-12-18T09:34:12;118.57;;;35.65;;
75218;SDS011;63801;49.414;19.474;2022-12-18T09:36:14;112.53;;;29.92;;
75218;SDS011;63801;49.414;19.474;2022-12-18T09:38:17;126.78;;;36.60;;
75218;SDS011;63801;49.414;19.474;2022-12-18T09:40:20;193.90;;;63.78;;
75218;SDS011;63801;49.414;19.474;2022-12-18T09:42:23;131.95;;;36.20;;
75218;SDS011;63801;49.414;19.474;2022-12-18T09:44:33;114.80;;;33.65;;
75218;SDS011;63801;49.414;19.474;2022-12-18T09:46:57;123.72;;;36.20;;
75218;SDS011;63801;49.414;19.474;2022-12-18T09:49:05;116.13;;;36.72;;
75218;SDS011;63801;49.414;19.474;2022-12-18T09:51:13;122.47;;;34.83;;
75218;SDS011;63801;49.414;19.474;2022-12-18T09:53:20;108.70;;;33.08;;
75218;SDS011;63801;49.414;19.474;2022-12-18T09:55:33;132.27;;;40.60;;
75218;SDS011;63801;49.414;19.474;2022-12-18T09:57:38;202.68;;;59.15;;
75218;SDS011;63801;49.414;19.474;2022-12-18T09:59:46;158.88;;;47.75;;
75218;SDS011;63801;49.414;19.474;2022-12-18T10:02:15;135.63;;;40.63;;
75218;SDS011;63801;49.414;19.474;2022-12-18T10:04:16;101.57;;;28.55;;
75218;SDS011;63801;49.414;19.474;2022-12-18T10:10:51;129.07;;;38.00;;
75218;SDS011;63801;49.414;19.474;2022-12-18T10:15:39;128.15;;;33.78;;
75218;SDS011;63801;49.414;19.474;2022-12-18T10:17:46;160.40;;;31.70;;
75218;SDS011;63801;49.414;19.474;2022-12-18T10:20:04;121.82;;;30.15;;
75218;SDS011;63801;49.414;19.474;2022-12-18T10:22:26;105.03;;;30.92;;
75218;SDS011;63801;49.414;19.474;2022-12-18T10:25:03;109.35;;;31.90;;
75218;SDS011;63801;49.414;19.474;2022-12-18T10:27:13;113.05;;;33.20;;
75218;SDS011;63801;49.414;19.474;2022-12-18T10:29:16;114.50;;;32.05;;
75218;SDS011;63801;49.414;19.474;2022-12-18T10:31:18;108.97;;;34.63;;
75218;SDS011;63801;49.414;19.474;2022-12-18T10:33:21;115.90;;;32.60;;
75218;SDS011;63801;49.414;19.474;2022-12-18T10:35:25;108.47;;;31.55;;
75218;SDS011;63801;49.414;19.474;2022-12-18T10:37:27;119.05;;;32.33;;
75218;SDS011;63801;49.414;19.474;2022-12-18T10:39:29;115.85;;;31.67;;
75218;SDS011;63801;49.414;19.474;2022-12-18T10:41:29;104.82;;;31.25;;
75218;SDS011;63801;49.414;19.474;2022-12-18T10:43:31;143.57;;;42.65;;
75218;SDS011;63801;49.414;19.474;2022-12-18T10:45:33;119.03;;;36.88;;
75218;SDS011;63801;49.414;19.474;2022-12-18T10:47:35;129.77;;;37.08;;
75218;SDS011;63801;49.414;19.474;2022-12-18T10:49:35;106.97;;;33.30;;
75218;SDS011;63801;49.414;19.474;2022-12-18T10:51:48;131.75;;;34.17;;
75218;SDS011;63801;49.414;19.474;2022-12-18T10:53:53;128.77;;;37.72;;
75218;SDS011;63801;49.414;19.474;2022-12-18T10:55:59;128.40;;;39.67;;
75218;SDS011;63801;49.414;19.474;2022-12-18T10:58:15;108.05;;;31.88;;
75218;SDS011;63801;49.414;19.474;2022-12-18T11:00:36;118.68;;;33.15;;
75218;SDS011;63801;49.414;19.474;2022-12-18T11:02:37;137.20;;;38.08;;
75218;SDS011;63801;49.414;19.474;2022-12-18T11:04:40;131.73;;;35.50;;
75218;SDS011;63801;49.414;19.474;2022-12-18T11:07:03;144.25;;;41.00;;
75218;SDS011;63801;49.414;19.474;2022-12-18T11:09:18;123.18;;;32.60;;
75218;SDS011;63801;49.414;19.474;2022-12-18T11:11:21;118.63;;;32.15;;
75218;SDS011;63801;49.414;19.474;2022-12-18T11:13:23;120.97;;;33.72;;
75218;SDS011;63801;49.414;19.474;2022-12-18T11:15:29;119.97;;;32.75;;
75218;SDS011;63801;49.414;19.474;2022-12-18T11:17:35;118.20;;;32.25;;
75218;SDS011;63801;49.414;19.474;2022-12-18T11:19:36;109.53;;;32.08;;
75218;SDS011;63801;49.414;19.474;2022-12-18T11:21:40;115.05;;;30.65;;
75218;SDS011;63801;49.414;19.474;2022-12-18T11:23:49;112.18;;;33.10;;
75218;SDS011;63801;49.414;19.474;2022-12-18T11:25:53;125.22;;;33.95;;
75218;SDS011;63801;49.414;19.474;2022-12-18T11:27:56;131.35;;;35.50;;
75218;SDS011;63801;49.414;19.474;2022-12-18T11:30:09;124.07;;;33.83;;
75218;SDS011;63801;49.414;19.474;2022-12-18T11:34:39;122.50;;;34.97;;
75218;SDS011;63801;49.414;19.474;2022-12-18T11:36:45;109.05;;;32.85;;
75218;SDS011;63801;49.414;19.474;2022-12-18T11:38:46;130.35;;;39.58;;
75218;SDS011;63801;49.414;19.474;2022-12-18T11:42:58;152.10;;;40.47;;
75218;SDS011;63801;49.414;19.474;2022-12-18T11:49:26;157.27;;;44.03;;
75218;SDS011;63801;49.414;19.474;2022-12-18T11:51:34;153.13;;;45.42;;
75218;SDS011;63801;49.414;19.474;2022-12-18T11:53:41;162.57;;;46.10;;
75218;SDS011;63801;49.414;19.474;2022-12-18T12:00:12;182.13;;;47.65;;
75218;SDS011;63801;49.414;19.474;2022-12-18T12:04:53;175.10;;;49.78;;
75218;SDS011;63801;49.414;19.474;2022-12-18T12:09:32;203.57;;;63.63;;
75218;SDS011;63801;49.414;19.474;2022-12-18T12:12:05;190.88;;;56.88;;
75218;SDS011;63801;49.414;19.474;2022-12-18T12:25:54;196.60;;;58.65;;
75218;SDS011;63801;49.414;19.474;2022-12-18T12:30:35;138.93;;;39.75;;
75218;SDS011;63801;49.414;19.474;2022-12-18T12:37:33;161.65;;;53.45;;
75218;SDS011;63801;49.414;19.474;2022-12-18T12:39:38;170.95;;;49.72;;
75218;SDS011;63801;49.414;19.474;2022-12-18T12:41:42;181.98;;;53.58;;
75218;SDS011;63801;49.414;19.474;2022-12-18T12:44:06;211.05;;;62.80;;
75218;SDS011;63801;49.414;19.474;2022-12-18T12:46:10;229.77;;;68.40;;
75218;SDS011;63801;49.414;19.474;2022-12-18T12:50:35;228.10;;;69.30;;
75218;SDS011;63801;49.414;19.474;2022-12-18T12:52:37;248.15;;;68.53;;